createdAt,value
2023-03-07T00:00:01.148Z,12.02
2023-03-07T00:02:28.686Z,12.70
2023-03-07T00:04:56.506Z,11.75
2023-03-07T00:07:24.029Z,13.48
2023-03-07T00:09:51.613Z,12.27
2023-03-07T00:12:21.695Z,13.05
2023-03-07T00:14:49.244Z,12.40
2023-03-07T00:17:16.767Z,13.38
2023-03-07T00:19:44.770Z,12.23
2023-03-07T00:22:14.541Z,12.00
2023-03-07T00:24:42.244Z,12.65
2023-03-07T00:27:10.374Z,12.23
2023-03-07T00:29:38.302Z,12.45
2023-03-07T00:32:06.305Z,11.68
2023-03-07T00:34:34.338Z,13.10
2023-03-07T00:37:01.872Z,12.98
2023-03-07T00:39:29.406Z,13.37
2023-03-07T00:41:57.134Z,13.30
2023-03-07T00:44:25.538Z,13.40
2023-03-07T00:46:53.369Z,13.20
2023-03-07T00:49:21.249Z,14.13
2023-03-07T00:51:49.131Z,14.07
2023-03-07T00:54:17.259Z,15.38
2023-03-07T00:56:45.351Z,13.65
2023-03-07T00:59:12.987Z,15.73
2023-03-07T01:01:41.048Z,15.50
2023-03-07T01:04:08.991Z,15.93
2023-03-07T01:06:36.748Z,15.15
2023-03-07T01:09:07.423Z,15.55
2023-03-07T01:11:36.752Z,15.32
2023-03-07T01:14:06.186Z,14.43
2023-03-07T01:16:37.218Z,14.37
2023-03-07T01:19:08.411Z,14.87
2023-03-07T01:21:38.920Z,14.30
2023-03-07T01:24:09.642Z,15.80
2023-03-07T01:26:37.430Z,15.05
2023-03-07T01:29:06.278Z,15.10
2023-03-07T01:31:35.180Z,13.30
2023-03-07T01:34:03.638Z,14.30
2023-03-07T01:36:33.508Z,14.65
2023-03-07T01:39:14.167Z,13.30
2023-03-07T01:41:43.646Z,13.60
2023-03-07T01:44:25.915Z,13.77
2023-03-07T01:46:55.592Z,13.07
2023-03-07T01:49:32.978Z,13.88
2023-03-07T01:52:31.977Z,13.02
2023-03-07T01:55:04.494Z,12.33
2023-03-07T01:57:34.841Z,12.82
2023-03-07T02:00:08.576Z,13.13
2023-03-07T02:02:42.760Z,13.32
2023-03-07T02:05:14.256Z,12.77
2023-03-07T02:07:48.399Z,12.90
2023-03-07T02:10:20.241Z,13.10
2023-03-07T02:12:48.598Z,12.32
2023-03-07T02:15:16.816Z,12.48
2023-03-07T02:17:45.093Z,13.00
2023-03-07T02:20:13.222Z,12.17
2023-03-07T02:22:41.809Z,12.95
2023-03-07T02:25:15.309Z,12.63
2023-03-07T02:27:43.790Z,12.50
2023-03-07T02:30:12.182Z,12.15
2023-03-07T02:32:39.873Z,12.77
2023-03-07T02:35:15.622Z,12.35
2023-03-07T02:37:46.147Z,11.52
2023-03-07T02:40:15.846Z,11.32
2023-03-07T02:42:44.238Z,11.75
2023-03-07T02:45:15.403Z,12.40
2023-03-07T02:47:44.130Z,11.80
2023-03-07T02:50:13.594Z,12.23
2023-03-07T02:52:42.063Z,12.20
2023-03-07T02:55:10.262Z,12.93
2023-03-07T02:57:38.428Z,11.03
2023-03-07T03:00:11.510Z,11.77
2023-03-07T03:02:39.487Z,11.50
2023-03-07T03:05:07.380Z,11.30
2023-03-07T03:07:34.925Z,12.13
2023-03-07T03:10:03.469Z,12.13
2023-03-07T03:12:31.614Z,13.25
2023-03-07T03:14:59.223Z,11.43
2023-03-07T03:17:27.046Z,10.73
2023-03-07T03:19:54.585Z,11.90
2023-03-07T03:22:22.408Z,12.50
2023-03-07T03:24:50.988Z,12.20
2023-03-07T03:27:19.178Z,13.43
2023-03-07T03:29:47.232Z,13.50
2023-03-07T03:32:15.813Z,12.77
2023-03-07T03:34:43.889Z,12.53
2023-03-07T03:37:11.483Z,13.07
2023-03-07T03:39:39.742Z,12.43
2023-03-07T03:42:07.792Z,12.30
2023-03-07T03:44:35.378Z,13.50
2023-03-07T03:47:04.208Z,12.93
2023-03-07T03:49:33.054Z,12.93
2023-03-07T03:52:00.724Z,12.63
2023-03-07T03:54:28.664Z,12.37
2023-03-07T03:56:57.670Z,13.05
2023-03-07T03:59:25.570Z,12.47
2023-03-07T04:01:55.224Z,11.48
2023-03-07T04:04:23.275Z,11.57
2023-03-07T04:06:51.075Z,12.37
2023-03-07T04:09:18.633Z,11.80
2023-03-07T04:11:46.733Z,12.00
2023-03-07T04:14:14.377Z,11.75
2023-03-07T04:16:42.137Z,11.38
2023-03-07T04:19:13.131Z,11.73
2023-03-07T04:21:42.699Z,11.77
2023-03-07T04:24:11.503Z,11.10
2023-03-07T04:26:39.073Z,12.45
2023-03-07T04:29:06.608Z,11.25
2023-03-07T04:31:35.253Z,10.95
2023-03-07T04:34:03.258Z,11.30
2023-03-07T04:36:31.154Z,10.63
2023-03-07T04:38:58.902Z,10.85
2023-03-07T04:41:27.165Z,10.70
2023-03-07T04:43:54.808Z,10.05
2023-03-07T04:46:23.450Z,9.88
2023-03-07T04:48:51.222Z,9.60
2023-03-07T04:51:19.159Z,10.10
2023-03-07T04:53:48.467Z,9.45
2023-03-07T04:56:16.996Z,9.25
2023-03-07T04:58:45.276Z,8.55
2023-03-07T05:01:14.109Z,8.73
2023-03-07T05:03:42.454Z,9.65
2023-03-07T05:06:14.366Z,9.13
2023-03-07T05:08:42.465Z,9.90
2023-03-07T05:11:09.982Z,10.20
2023-03-07T05:13:37.665Z,8.97
2023-03-07T05:16:05.943Z,9.23
2023-03-07T05:18:33.510Z,9.63
2023-03-07T05:21:01.483Z,9.18
2023-03-07T05:23:29.847Z,8.63
2023-03-07T05:25:57.516Z,9.33
2023-03-07T05:28:25.238Z,9.38
2023-03-07T05:30:53.352Z,9.30
2023-03-07T05:33:21.096Z,9.00
2023-03-07T05:35:49.908Z,9.27
2023-03-07T05:38:18.055Z,9.67
2023-03-07T05:40:45.673Z,9.55
2023-03-07T05:43:13.875Z,9.25
2023-03-07T05:45:41.814Z,9.70
2023-03-07T05:48:09.423Z,10.35
2023-03-07T05:50:39.018Z,9.17
2023-03-07T05:53:07.139Z,9.77
2023-03-07T05:55:34.876Z,9.25
2023-03-07T05:58:02.842Z,9.23
2023-03-07T06:00:30.877Z,10.00
2023-03-07T06:03:02.943Z,9.07
2023-03-07T06:05:31.676Z,9.23
2023-03-07T06:07:59.465Z,9.23
2023-03-07T06:10:27.392Z,9.55
2023-03-07T06:12:55.008Z,8.80
2023-03-07T06:15:24.595Z,8.87
2023-03-07T06:17:53.941Z,8.70
2023-03-07T06:20:21.977Z,8.50
2023-03-07T06:22:50.057Z,8.52
2023-03-07T06:25:21.608Z,10.35
2023-03-07T06:27:49.520Z,9.43
2023-03-07T06:30:17.764Z,9.43
2023-03-07T06:32:45.573Z,8.85
2023-03-07T06:35:13.258Z,9.20
2023-03-07T06:37:41.280Z,8.65
2023-03-07T06:40:10.791Z,8.77
2023-03-07T06:42:39.094Z,8.27
2023-03-07T06:45:07.971Z,9.65
2023-03-07T06:47:35.525Z,9.13
2023-03-07T06:50:03.873Z,9.68
2023-03-07T06:52:32.004Z,12.97
2023-03-07T06:55:00.610Z,12.77
2023-03-07T06:57:29.402Z,13.98
2023-03-07T06:59:57.369Z,15.90
2023-03-07T07:02:25.249Z,15.20
2023-03-07T07:04:52.966Z,15.10
2023-03-07T07:07:20.905Z,16.62
2023-03-07T07:09:48.457Z,17.92
2023-03-07T07:12:15.999Z,17.05
2023-03-07T07:14:44.035Z,18.08
2023-03-07T07:17:11.873Z,18.80
2023-03-07T07:19:39.567Z,19.98
2023-03-07T07:22:11.870Z,19.23
2023-03-07T07:24:39.586Z,19.02
2023-03-07T07:27:07.733Z,17.62
2023-03-07T07:29:35.640Z,17.80
2023-03-07T07:32:03.441Z,17.00
2023-03-07T07:34:31.397Z,16.42
2023-03-07T07:36:59.249Z,16.48
2023-03-07T07:39:28.629Z,15.77
2023-03-07T07:41:56.543Z,15.57
2023-03-07T07:44:25.031Z,19.08
2023-03-07T07:46:52.627Z,16.62
2023-03-07T07:49:20.423Z,15.85
2023-03-07T07:51:48.118Z,15.80
2023-03-07T07:54:15.951Z,16.37
2023-03-07T07:56:43.882Z,15.07
2023-03-07T07:59:11.979Z,15.43
2023-03-07T08:01:39.751Z,14.40
2023-03-07T08:04:07.827Z,14.43
2023-03-07T08:06:35.487Z,14.97
2023-03-07T08:09:05.527Z,13.85
2023-03-07T08:11:33.466Z,13.55
2023-03-07T08:14:03.207Z,13.13
2023-03-07T08:16:30.851Z,13.55
2023-03-07T08:18:59.091Z,13.17
2023-03-07T08:21:27.340Z,12.98
2023-03-07T08:23:55.622Z,13.27
2023-03-07T08:26:23.729Z,12.82
2023-03-07T08:28:51.347Z,12.57
2023-03-07T08:31:23.694Z,13.53
2023-03-07T08:33:52.533Z,13.62
2023-03-07T08:36:20.704Z,13.18
2023-03-07T08:38:52.428Z,13.13
2023-03-07T08:41:21.928Z,13.18
2023-03-07T08:43:50.347Z,13.33
2023-03-07T08:46:17.962Z,14.77
2023-03-07T08:48:45.862Z,12.85
2023-03-07T08:51:16.126Z,12.50
2023-03-07T08:53:44.855Z,10.68
2023-03-07T08:56:15.685Z,13.07
2023-03-07T08:58:43.814Z,11.40
2023-03-07T09:01:13.057Z,11.55
2023-03-07T09:03:41.058Z,11.45
2023-03-07T09:06:08.624Z,10.98
2023-03-07T09:08:36.345Z,9.53
2023-03-07T09:11:05.556Z,10.38
2023-03-07T09:13:38.155Z,10.32
2023-03-07T09:16:11.069Z,10.68
2023-03-07T09:18:38.843Z,11.20
2023-03-07T09:21:06.684Z,11.43
2023-03-07T09:23:34.770Z,11.40
2023-03-07T09:26:04.861Z,10.77
2023-03-07T09:28:32.608Z,11.50
2023-03-07T09:31:07.020Z,12.07
2023-03-07T09:33:34.618Z,11.23
2023-03-07T09:36:06.970Z,11.95
2023-03-07T09:38:34.837Z,10.88
2023-03-07T09:41:40.311Z,11.12
2023-03-07T09:44:10.889Z,11.15
2023-03-07T09:47:21.937Z,12.30
2023-03-07T09:49:50.198Z,10.95
2023-03-07T09:52:21.095Z,10.23
2023-03-07T09:54:57.218Z,10.45
2023-03-07T09:57:29.008Z,9.82
2023-03-07T10:00:00.472Z,10.07
2023-03-07T10:02:33.559Z,8.40
2023-03-07T10:05:11.012Z,6.75
2023-03-07T10:07:38.700Z,6.28
2023-03-07T10:10:13.139Z,6.10
2023-03-07T10:13:10.658Z,5.93
2023-03-07T10:15:46.585Z,7.20
2023-03-07T10:18:55.928Z,7.45
2023-03-07T10:21:38.868Z,6.93
2023-03-07T10:24:28.224Z,7.97
2023-03-07T10:27:06.675Z,8.20
2023-03-07T10:29:55.330Z,8.23
2023-03-07T10:32:27.639Z,8.52
2023-03-07T10:35:02.834Z,7.60
2023-03-07T10:37:58.678Z,6.93
2023-03-07T10:40:41.844Z,6.63
2023-03-07T10:43:23.719Z,8.13
2023-03-07T10:46:18.927Z,6.85
2023-03-07T10:48:58.603Z,7.45
2023-03-07T10:51:51.133Z,7.78
2023-03-07T10:54:24.787Z,7.27
2023-03-07T10:57:16.529Z,8.70
2023-03-07T10:59:50.084Z,7.70
2023-03-07T11:02:41.081Z,8.13
2023-03-07T11:05:32.103Z,8.35
2023-03-07T11:08:02.363Z,9.10
2023-03-07T11:10:39.834Z,8.35
2023-03-07T11:13:15.189Z,7.90
2023-03-07T11:15:45.173Z,9.85
2023-03-07T11:18:37.087Z,8.88
2023-03-07T11:21:05.367Z,9.60
2023-03-07T11:23:33.392Z,8.95
2023-03-07T11:26:22.618Z,9.43
2023-03-07T11:29:11.985Z,9.73
2023-03-07T11:32:04.672Z,8.55
2023-03-07T11:34:53.764Z,7.20
2023-03-07T11:37:45.033Z,6.68
2023-03-07T11:40:23.685Z,7.45
2023-03-07T11:43:14.476Z,8.35
2023-03-07T11:45:52.667Z,7.50
2023-03-07T11:48:43.063Z,6.70
2023-03-07T11:51:45.436Z,8.55
2023-03-07T11:54:19.231Z,7.18
2023-03-07T11:56:50.430Z,8.05
2023-03-07T11:59:24.569Z,7.87
2023-03-07T12:01:59.226Z,8.63
2023-03-07T12:04:36.851Z,8.40
2023-03-07T12:07:07.561Z,9.82
2023-03-07T12:09:48.873Z,9.43
2023-03-07T12:12:37.031Z,8.65
2023-03-07T12:15:40.553Z,8.23
2023-03-07T12:18:40.488Z,9.85
2023-03-07T12:21:57.022Z,10.82
2023-03-07T12:24:28.070Z,9.43
2023-03-07T12:27:08.775Z,10.23
2023-03-07T12:29:46.529Z,8.33
2023-03-07T12:32:20.061Z,9.05
2023-03-07T12:34:54.227Z,9.02
2023-03-07T12:37:51.935Z,8.70
2023-03-07T12:40:26.466Z,9.25
2023-03-07T12:43:02.771Z,9.50
2023-03-07T12:45:41.077Z,8.07
2023-03-07T12:48:18.089Z,9.30
2023-03-07T12:50:52.807Z,9.25
2023-03-07T12:53:49.224Z,8.00
2023-03-07T12:56:31.756Z,7.87
2023-03-07T12:59:03.505Z,7.60
2023-03-07T13:01:44.225Z,6.95
2023-03-07T13:04:48.754Z,7.15
2023-03-07T13:07:22.336Z,6.70
2023-03-07T13:09:52.874Z,6.03
2023-03-07T13:12:37.502Z,6.78
2023-03-07T13:15:18.053Z,6.60
2023-03-07T13:17:45.959Z,7.72
2023-03-07T13:20:20.064Z,7.70
2023-03-07T13:22:47.860Z,7.83
2023-03-07T13:25:36.033Z,8.13
2023-03-07T13:28:06.307Z,6.85
2023-03-07T13:30:34.609Z,8.70
2023-03-07T13:33:35.065Z,8.10
2023-03-07T13:36:04.245Z,8.07
2023-03-07T13:38:55.080Z,8.55
2023-03-07T13:41:47.789Z,8.23
2023-03-07T13:44:29.743Z,8.20
2023-03-07T13:47:02.754Z,7.45
2023-03-07T13:49:41.538Z,7.53
2023-03-07T13:52:18.897Z,7.28
2023-03-07T13:54:49.159Z,7.05
2023-03-07T13:57:18.473Z,6.97
2023-03-07T13:59:50.218Z,7.45
2023-03-07T14:02:18.534Z,7.83
2023-03-07T14:04:54.530Z,10.40
2023-03-07T14:07:25.574Z,10.63
2023-03-07T14:09:58.418Z,10.20
2023-03-07T14:13:05.192Z,9.82
2023-03-07T14:16:00.909Z,8.90
2023-03-07T14:18:47.862Z,10.73
2023-03-07T14:21:37.347Z,8.38
2023-03-07T14:24:26.859Z,10.13
2023-03-07T14:26:59.270Z,9.55
2023-03-07T14:29:29.072Z,8.23
2023-03-07T14:32:00.689Z,9.65
2023-03-07T14:34:35.951Z,8.65
2023-03-07T14:37:12.717Z,9.18
2023-03-07T14:39:58.430Z,7.90
2023-03-07T14:42:41.519Z,7.57
2023-03-07T14:45:18.288Z,9.02
2023-03-07T14:48:08.576Z,9.48
2023-03-07T14:50:39.964Z,9.32
2023-03-07T14:53:19.478Z,9.30
2023-03-07T14:55:49.283Z,9.30
2023-03-07T14:58:29.558Z,9.13
2023-03-07T15:01:01.469Z,9.38
2023-03-07T15:03:30.626Z,10.48
2023-03-07T15:06:00.513Z,12.00
2023-03-07T15:08:38.276Z,12.40
2023-03-07T15:11:21.128Z,10.88
2023-03-07T15:13:52.377Z,12.18
2023-03-07T15:16:46.073Z,12.37
2023-03-07T15:19:29.364Z,9.15
2023-03-07T15:22:00.496Z,7.47
2023-03-07T15:24:33.033Z,8.73
2023-03-07T15:27:01.341Z,9.15
2023-03-07T15:29:29.967Z,8.30
2023-03-07T15:32:24.562Z,8.48
2023-03-07T15:35:00.267Z,9.23
2023-03-07T15:37:31.417Z,10.93
2023-03-07T15:40:35.229Z,10.40
2023-03-07T15:43:04.429Z,10.05
2023-03-07T15:45:38.518Z,8.98
2023-03-07T15:48:14.951Z,11.80
2023-03-07T15:50:42.935Z,14.57
2023-03-07T15:53:27.638Z,14.85
2023-03-07T15:56:01.076Z,11.25
2023-03-07T15:58:29.363Z,10.57
2023-03-07T16:01:16.736Z,10.87
2023-03-07T16:03:50.906Z,10.82
2023-03-07T16:06:30.530Z,11.02
2023-03-07T16:08:58.363Z,10.50
2023-03-07T16:11:25.951Z,11.15
2023-03-07T16:13:53.579Z,11.17
2023-03-07T16:16:23.798Z,12.63
2023-03-07T16:18:52.198Z,10.63
2023-03-07T16:21:20.682Z,12.05
2023-03-07T16:23:50.750Z,11.55
2023-03-07T16:26:23.589Z,11.20
2023-03-07T16:28:52.297Z,11.05
2023-03-07T16:31:20.855Z,10.88
2023-03-07T16:33:48.928Z,11.32
2023-03-07T16:36:19.545Z,10.60
2023-03-07T16:38:47.383Z,11.17
2023-03-07T16:41:20.289Z,10.85
2023-03-07T16:43:55.922Z,10.85
2023-03-07T16:46:24.104Z,11.90
2023-03-07T16:48:52.041Z,10.90
2023-03-07T16:51:22.160Z,11.57
2023-03-07T16:53:50.630Z,11.18
2023-03-07T16:56:40.883Z,11.60
2023-03-07T16:59:13.598Z,10.65
2023-03-07T17:01:46.964Z,10.50
2023-03-07T17:04:14.805Z,10.70
2023-03-07T17:06:42.766Z,10.93
2023-03-07T17:09:11.957Z,11.35
2023-03-07T17:11:46.736Z,11.20
2023-03-07T17:14:15.336Z,9.85
2023-03-07T17:16:45.255Z,9.70
2023-03-07T17:19:25.026Z,9.50
2023-03-07T17:21:53.257Z,9.93
2023-03-07T17:24:20.752Z,9.05
2023-03-07T17:26:49.278Z,9.15
2023-03-07T17:29:38.859Z,8.57
2023-03-07T17:32:07.074Z,8.88
2023-03-07T17:34:36.747Z,7.82
2023-03-07T17:37:05.252Z,8.07
2023-03-07T17:39:34.388Z,8.52
2023-03-07T17:42:03.535Z,7.73
2023-03-07T17:44:31.766Z,7.93
2023-03-07T17:46:59.323Z,8.15
2023-03-07T17:49:33.486Z,7.82
2023-03-07T17:52:01.626Z,7.80
2023-03-07T17:54:31.650Z,7.63
2023-03-07T17:56:59.226Z,8.00
2023-03-07T17:59:27.098Z,7.57
2023-03-07T18:01:55.138Z,7.85
2023-03-07T18:04:23.242Z,7.85
2023-03-07T18:06:51.098Z,7.77
2023-03-07T18:09:22.900Z,7.40
2023-03-07T18:14:53.933Z,7.40
2023-03-07T18:17:22.120Z,8.27
2023-03-07T18:19:50.049Z,7.30
2023-03-07T18:22:17.786Z,7.57
2023-03-07T18:24:45.778Z,8.00
2023-03-07T18:27:13.373Z,7.82
2023-03-07T18:29:41.039Z,8.02
2023-03-07T18:32:09.325Z,8.03
2023-03-07T18:34:37.557Z,7.80
2023-03-07T18:37:08.239Z,8.10
2023-03-07T18:39:36.244Z,9.55
2023-03-07T18:42:04.508Z,9.27
2023-03-07T22:04:45.829Z,13.75
2023-03-07T22:07:14.477Z,12.83
2023-03-07T22:09:42.133Z,15.18
2023-03-07T22:12:09.737Z,14.18
2023-03-07T22:14:37.771Z,14.35
2023-03-07T22:17:05.262Z,15.73
2023-03-07T22:19:32.946Z,15.10
2023-03-07T22:22:01.114Z,14.15
2023-03-07T22:24:28.662Z,15.55
2023-03-07T22:26:56.119Z,14.98
2023-03-07T22:29:23.900Z,15.23
2023-03-07T22:31:51.427Z,14.90
2023-03-07T22:34:18.852Z,13.98
2023-03-07T22:36:46.723Z,15.13
2023-03-07T22:39:14.194Z,14.93
2023-03-07T22:41:41.614Z,14.52
2023-03-07T22:44:09.381Z,14.40
2023-03-07T22:46:36.971Z,13.90
2023-03-07T22:49:04.558Z,14.15
2023-03-07T22:51:32.652Z,15.02
2023-03-07T22:54:02.999Z,15.07
2023-03-07T22:56:30.901Z,14.47
2023-03-07T22:58:59.145Z,13.85
2023-03-07T23:01:28.288Z,13.88
2023-03-07T23:03:57.269Z,13.02
2023-03-07T23:06:30.311Z,14.07
2023-03-07T23:08:59.652Z,13.87
2023-03-07T23:11:29.387Z,14.32
2023-03-07T23:13:56.976Z,13.65
2023-03-07T23:16:26.537Z,13.62
2023-03-07T23:18:57.004Z,13.65
2023-03-07T23:21:28.783Z,13.33
2023-03-07T23:23:57.364Z,13.55
2023-03-07T23:26:28.340Z,14.35
2023-03-07T23:28:56.682Z,13.55
2023-03-07T23:31:27.400Z,13.30
2023-03-07T23:33:59.606Z,13.27
2023-03-07T23:36:29.187Z,13.60
2023-03-07T23:38:58.009Z,13.77
2023-03-07T23:41:25.828Z,14.13
2023-03-07T23:43:58.587Z,14.40
2023-03-07T23:46:26.834Z,13.80
2023-03-07T23:48:55.802Z,13.60
2023-03-07T23:51:24.242Z,13.60
2023-03-07T23:53:51.898Z,13.10
2023-03-07T23:56:19.941Z,13.90
2023-03-07T23:58:51.385Z,12.70
